sensor_id;sensor_type;location;lat;lon;timestamp;P1;durP1;ratioP1;P2;durP2;ratioP2
9834;SDS011;4956;50.996;13.716;2022-12-04T00:00:48;56.38;;;26.70;;
9834;SDS011;4956;50.996;13.716;2022-12-04T00:04:08;52.53;;;26.42;;
9834;SDS011;4956;50.996;13.716;2022-12-04T00:07:29;56.25;;;27.08;;
9834;SDS011;4956;50.996;13.716;2022-12-04T00:10:49;56.65;;;26.08;;
9834;SDS011;4956;50.996;13.716;2022-12-04T00:14:10;60.38;;;27.52;;
9834;SDS011;4956;50.996;13.716;2022-12-04T00:17:30;60.58;;;27.67;;
9834;SDS011;4956;50.996;13.716;2022-12-04T00:20:51;61.42;;;28.27;;
9834;SDS011;4956;50.996;13.716;2022-12-04T00:24:11;62.35;;;27.48;;
9834;SDS011;4956;50.996;13.716;2022-12-04T00:27:31;62.33;;;28.63;;
9834;SDS011;4956;50.996;13.716;2022-12-04T00:30:57;59.33;;;27.15;;
9834;SDS011;4956;50.996;13.716;2022-12-04T00:34:18;96.78;;;28.98;;
9834;SDS011;4956;50.996;13.716;2022-12-04T00:37:38;65.40;;;30.88;;
9834;SDS011;4956;50.996;13.716;2022-12-04T00:40:58;70.40;;;30.38;;
9834;SDS011;4956;50.996;13.716;2022-12-04T00:44:21;70.72;;;31.88;;
9834;SDS011;4956;50.996;13.716;2022-12-04T00:47:42;85.63;;;32.60;;
9834;SDS011;4956;50.996;13.716;2022-12-04T00:51:09;85.95;;;31.40;;
9834;SDS011;4956;50.996;13.716;2022-12-04T00:54:32;92.00;;;31.10;;
9834;SDS011;4956;50.996;13.716;2022-12-04T00:57:52;69.10;;;30.55;;
9834;SDS011;4956;50.996;13.716;2022-12-04T01:01:14;71.78;;;30.70;;
9834;SDS011;4956;50.996;13.716;2022-12-04T01:04:36;70.68;;;30.10;;
9834;SDS011;4956;50.996;13.716;2022-12-04T01:07:56;67.30;;;30.00;;
9834;SDS011;4956;50.996;13.716;2022-12-04T01:11:17;93.00;;;31.17;;
9834;SDS011;4956;50.996;13.716;2022-12-04T01:14:37;69.78;;;30.25;;
9834;SDS011;4956;50.996;13.716;2022-12-04T01:17:58;67.28;;;29.98;;
9834;SDS011;4956;50.996;13.716;2022-12-04T01:21:18;72.53;;;29.33;;
9834;SDS011;4956;50.996;13.716;2022-12-04T01:24:39;68.85;;;30.27;;
9834;SDS011;4956;50.996;13.716;2022-12-04T01:27:59;66.82;;;29.77;;
9834;SDS011;4956;50.996;13.716;2022-12-04T01:31:20;65.10;;;29.38;;
9834;SDS011;4956;50.996;13.716;2022-12-04T01:34:41;61.97;;;28.85;;
9834;SDS011;4956;50.996;13.716;2022-12-04T01:38:01;62.75;;;29.30;;
9834;SDS011;4956;50.996;13.716;2022-12-04T01:41:23;67.45;;;29.83;;
9834;SDS011;4956;50.996;13.716;2022-12-04T01:49:04;66.60;;;29.95;;
9834;SDS011;4956;50.996;13.716;2022-12-04T01:52:26;65.40;;;29.30;;
9834;SDS011;4956;50.996;13.716;2022-12-04T01:55:47;65.72;;;29.45;;
9834;SDS011;4956;50.996;13.716;2022-12-04T01:59:07;72.60;;;29.90;;
9834;SDS011;4956;50.996;13.716;2022-12-04T02:02:29;64.40;;;29.80;;
9834;SDS011;4956;50.996;13.716;2022-12-04T02:05:51;66.15;;;29.42;;
9834;SDS011;4956;50.996;13.716;2022-12-04T02:09:12;65.50;;;28.25;;
9834;SDS011;4956;50.996;13.716;2022-12-04T02:23:45;80.10;;;30.52;;
9834;SDS011;4956;50.996;13.716;2022-12-04T02:27:17;67.38;;;30.55;;
9834;SDS011;4956;50.996;13.716;2022-12-04T02:30:58;66.40;;;30.25;;
9834;SDS011;4956;50.996;13.716;2022-12-04T02:34:27;67.38;;;30.17;;
9834;SDS011;4956;50.996;13.716;2022-12-04T02:37:50;68.35;;;30.52;;
9834;SDS011;4956;50.996;13.716;2022-12-04T02:41:24;67.45;;;30.00;;
9834;SDS011;4956;50.996;13.716;2022-12-04T02:44:49;61.70;;;28.35;;
9834;SDS011;4956;50.996;13.716;2022-12-04T02:48:16;63.88;;;29.27;;
9834;SDS011;4956;50.996;13.716;2022-12-04T02:51:39;58.90;;;27.63;;
9834;SDS011;4956;50.996;13.716;2022-12-04T02:55:02;64.40;;;29.55;;
9834;SDS011;4956;50.996;13.716;2022-12-04T02:58:29;60.50;;;28.15;;
9834;SDS011;4956;50.996;13.716;2022-12-04T03:01:52;62.55;;;28.33;;
9834;SDS011;4956;50.996;13.716;2022-12-04T03:05:17;66.68;;;30.60;;
9834;SDS011;4956;50.996;13.716;2022-12-04T03:08:41;64.43;;;29.90;;
9834;SDS011;4956;50.996;13.716;2022-12-04T03:15:48;77.47;;;30.83;;
9834;SDS011;4956;50.996;13.716;2022-12-04T03:19:14;73.93;;;31.33;;
9834;SDS011;4956;50.996;13.716;2022-12-04T03:22:38;70.18;;;31.98;;
9834;SDS011;4956;50.996;13.716;2022-12-04T03:26:06;70.97;;;32.15;;
9834;SDS011;4956;50.996;13.716;2022-12-04T03:33:18;72.97;;;32.10;;
9834;SDS011;4956;50.996;13.716;2022-12-04T03:36:45;70.57;;;30.35;;
9834;SDS011;4956;50.996;13.716;2022-12-04T03:43:36;70.75;;;32.00;;
9834;SDS011;4956;50.996;13.716;2022-12-04T03:47:06;74.25;;;32.17;;
9834;SDS011;4956;50.996;13.716;2022-12-04T03:50:38;71.82;;;33.33;;
9834;SDS011;4956;50.996;13.716;2022-12-04T03:57:57;67.63;;;32.03;;
9834;SDS011;4956;50.996;13.716;2022-12-04T04:01:21;75.90;;;33.75;;
9834;SDS011;4956;50.996;13.716;2022-12-04T04:04:45;78.75;;;33.53;;
9834;SDS011;4956;50.996;13.716;2022-12-04T04:08:08;76.43;;;33.35;;
9834;SDS011;4956;50.996;13.716;2022-12-04T04:15:13;85.63;;;37.22;;
9834;SDS011;4956;50.996;13.716;2022-12-04T04:18:53;84.43;;;35.42;;
9834;SDS011;4956;50.996;13.716;2022-12-04T04:22:34;76.20;;;34.45;;
9834;SDS011;4956;50.996;13.716;2022-12-04T04:26:13;84.57;;;36.22;;
9834;SDS011;4956;50.996;13.716;2022-12-04T04:29:34;75.53;;;33.95;;
9834;SDS011;4956;50.996;13.716;2022-12-04T04:32:57;80.50;;;35.45;;
9834;SDS011;4956;50.996;13.716;2022-12-04T04:36:22;83.35;;;35.60;;
9834;SDS011;4956;50.996;13.716;2022-12-04T04:39:51;79.78;;;33.95;;
9834;SDS011;4956;50.996;13.716;2022-12-04T04:43:19;76.38;;;32.85;;
9834;SDS011;4956;50.996;13.716;2022-12-04T04:46:48;79.68;;;34.40;;
9834;SDS011;4956;50.996;13.716;2022-12-04T04:50:12;72.13;;;33.58;;
9834;SDS011;4956;50.996;13.716;2022-12-04T04:53:34;85.72;;;36.72;;
9834;SDS011;4956;50.996;13.716;2022-12-04T04:56:56;79.28;;;35.88;;
9834;SDS011;4956;50.996;13.716;2022-12-04T05:00:18;79.60;;;35.35;;
9834;SDS011;4956;50.996;13.716;2022-12-04T05:03:41;71.80;;;32.65;;
9834;SDS011;4956;50.996;13.716;2022-12-04T05:07:01;80.75;;;36.10;;
9834;SDS011;4956;50.996;13.716;2022-12-04T05:10:22;76.82;;;35.13;;
9834;SDS011;4956;50.996;13.716;2022-12-04T05:13:43;75.25;;;32.67;;
9834;SDS011;4956;50.996;13.716;2022-12-04T05:17:04;120.57;;;35.97;;
9834;SDS011;4956;50.996;13.716;2022-12-04T05:20:25;75.85;;;35.50;;
9834;SDS011;4956;50.996;13.716;2022-12-04T05:23:45;73.07;;;34.20;;
9834;SDS011;4956;50.996;13.716;2022-12-04T05:27:05;106.88;;;36.60;;
9834;SDS011;4956;50.996;13.716;2022-12-04T05:30:26;85.63;;;35.83;;
9834;SDS011;4956;50.996;13.716;2022-12-04T05:33:46;74.90;;;34.83;;
9834;SDS011;4956;50.996;13.716;2022-12-04T05:37:06;81.57;;;35.72;;
9834;SDS011;4956;50.996;13.716;2022-12-04T05:40:27;78.90;;;34.38;;
9834;SDS011;4956;50.996;13.716;2022-12-04T05:43:47;99.10;;;34.83;;
9834;SDS011;4956;50.996;13.716;2022-12-04T05:47:07;77.53;;;35.17;;
9834;SDS011;4956;50.996;13.716;2022-12-04T05:50:28;73.22;;;34.30;;
9834;SDS011;4956;50.996;13.716;2022-12-04T05:53:50;80.20;;;34.40;;
9834;SDS011;4956;50.996;13.716;2022-12-04T05:57:10;78.95;;;35.78;;
9834;SDS011;4956;50.996;13.716;2022-12-04T06:00:31;78.60;;;35.47;;
9834;SDS011;4956;50.996;13.716;2022-12-04T06:03:51;107.03;;;38.53;;
9834;SDS011;4956;50.996;13.716;2022-12-04T06:07:11;77.85;;;35.03;;
9834;SDS011;4956;50.996;13.716;2022-12-04T06:10:32;73.93;;;33.90;;
9834;SDS011;4956;50.996;13.716;2022-12-04T06:13:52;76.28;;;35.83;;
9834;SDS011;4956;50.996;13.716;2022-12-04T06:17:12;82.32;;;35.35;;
9834;SDS011;4956;50.996;13.716;2022-12-04T06:20:33;73.55;;;35.20;;
9834;SDS011;4956;50.996;13.716;2022-12-04T06:23:54;78.72;;;35.90;;
9834;SDS011;4956;50.996;13.716;2022-12-04T06:27:14;75.65;;;34.58;;
9834;SDS011;4956;50.996;13.716;2022-12-04T06:30:35;80.47;;;34.38;;
9834;SDS011;4956;50.996;13.716;2022-12-04T06:33:56;76.70;;;34.42;;
9834;SDS011;4956;50.996;13.716;2022-12-04T06:37:17;75.88;;;35.53;;
9834;SDS011;4956;50.996;13.716;2022-12-04T06:40:40;73.38;;;35.20;;
9834;SDS011;4956;50.996;13.716;2022-12-04T06:44:00;71.65;;;34.75;;
9834;SDS011;4956;50.996;13.716;2022-12-04T06:47:21;77.25;;;35.47;;
9834;SDS011;4956;50.996;13.716;2022-12-04T06:50:41;73.70;;;35.78;;
9834;SDS011;4956;50.996;13.716;2022-12-04T06:54:02;72.03;;;34.03;;
9834;SDS011;4956;50.996;13.716;2022-12-04T06:57:22;73.93;;;35.40;;
9834;SDS011;4956;50.996;13.716;2022-12-04T07:00:43;72.25;;;34.13;;
9834;SDS011;4956;50.996;13.716;2022-12-04T07:04:03;68.35;;;33.13;;
9834;SDS011;4956;50.996;13.716;2022-12-04T07:07:24;73.15;;;34.95;;
9834;SDS011;4956;50.996;13.716;2022-12-04T07:10:44;70.57;;;33.15;;
9834;SDS011;4956;50.996;13.716;2022-12-04T07:14:04;70.90;;;33.05;;
9834;SDS011;4956;50.996;13.716;2022-12-04T07:17:25;71.55;;;34.53;;
9834;SDS011;4956;50.996;13.716;2022-12-04T07:20:45;74.10;;;35.40;;
9834;SDS011;4956;50.996;13.716;2022-12-04T07:24:06;79.65;;;36.15;;
9834;SDS011;4956;50.996;13.716;2022-12-04T07:27:28;74.75;;;35.80;;
9834;SDS011;4956;50.996;13.716;2022-12-04T07:30:49;76.32;;;35.58;;
9834;SDS011;4956;50.996;13.716;2022-12-04T07:34:09;72.60;;;35.88;;
9834;SDS011;4956;50.996;13.716;2022-12-04T07:37:30;75.60;;;35.30;;
9834;SDS011;4956;50.996;13.716;2022-12-04T07:40:50;78.53;;;36.15;;
9834;SDS011;4956;50.996;13.716;2022-12-04T07:44:11;75.22;;;35.60;;
9834;SDS011;4956;50.996;13.716;2022-12-04T07:47:31;69.63;;;33.80;;
9834;SDS011;4956;50.996;13.716;2022-12-04T07:51:07;90.88;;;35.00;;
9834;SDS011;4956;50.996;13.716;2022-12-04T07:54:29;65.60;;;33.70;;
9834;SDS011;4956;50.996;13.716;2022-12-04T07:57:50;71.65;;;35.33;;
9834;SDS011;4956;50.996;13.716;2022-12-04T08:01:14;81.20;;;37.45;;
9834;SDS011;4956;50.996;13.716;2022-12-04T08:04:36;65.65;;;33.10;;
9834;SDS011;4956;50.996;13.716;2022-12-04T08:07:56;73.65;;;34.05;;
9834;SDS011;4956;50.996;13.716;2022-12-04T08:11:18;74.80;;;34.05;;
9834;SDS011;4956;50.996;13.716;2022-12-04T08:14:41;66.43;;;33.25;;
9834;SDS011;4956;50.996;13.716;2022-12-04T08:18:01;65.90;;;33.00;;
9834;SDS011;4956;50.996;13.716;2022-12-04T08:21:23;70.60;;;38.30;;
9834;SDS011;4956;50.996;13.716;2022-12-04T08:24:45;60.35;;;31.38;;
9834;SDS011;4956;50.996;13.716;2022-12-04T08:28:06;56.55;;;30.08;;
9834;SDS011;4956;50.996;13.716;2022-12-04T08:31:27;63.08;;;31.17;;
9834;SDS011;4956;50.996;13.716;2022-12-04T08:34:49;70.65;;;33.38;;
9834;SDS011;4956;50.996;13.716;2022-12-04T08:38:10;66.22;;;33.92;;
9834;SDS011;4956;50.996;13.716;2022-12-04T08:41:31;57.80;;;30.30;;
9834;SDS011;4956;50.996;13.716;2022-12-04T08:44:51;81.60;;;43.10;;
9834;SDS011;4956;50.996;13.716;2022-12-04T08:48:11;67.40;;;34.78;;
9834;SDS011;4956;50.996;13.716;2022-12-04T08:51:32;65.32;;;33.90;;
9834;SDS011;4956;50.996;13.716;2022-12-04T08:54:54;60.45;;;32.13;;
9834;SDS011;4956;50.996;13.716;2022-12-04T08:58:14;62.05;;;32.95;;
9834;SDS011;4956;50.996;13.716;2022-12-04T09:01:35;57.83;;;31.33;;
9834;SDS011;4956;50.996;13.716;2022-12-04T09:04:55;59.30;;;31.90;;
9834;SDS011;4956;50.996;13.716;2022-12-04T09:08:16;58.50;;;30.55;;
9834;SDS011;4956;50.996;13.716;2022-12-04T09:11:36;56.17;;;30.52;;
9834;SDS011;4956;50.996;13.716;2022-12-04T09:14:57;59.65;;;30.20;;
9834;SDS011;4956;50.996;13.716;2022-12-04T09:18:17;55.80;;;29.45;;
9834;SDS011;4956;50.996;13.716;2022-12-04T09:21:37;52.50;;;29.65;;
9834;SDS011;4956;50.996;13.716;2022-12-04T09:24:58;58.50;;;30.85;;
9834;SDS011;4956;50.996;13.716;2022-12-04T09:28:18;56.22;;;30.95;;
9834;SDS011;4956;50.996;13.716;2022-12-04T09:31:39;51.08;;;29.83;;
9834;SDS011;4956;50.996;13.716;2022-12-04T09:34:59;53.50;;;30.60;;
9834;SDS011;4956;50.996;13.716;2022-12-04T09:38:20;67.20;;;33.72;;
9834;SDS011;4956;50.996;13.716;2022-12-04T09:48:31;67.55;;;34.97;;
9834;SDS011;4956;50.996;13.716;2022-12-04T09:51:54;59.80;;;32.60;;
9834;SDS011;4956;50.996;13.716;2022-12-04T09:55:25;63.90;;;33.58;;
9834;SDS011;4956;50.996;13.716;2022-12-04T09:58:56;57.80;;;32.78;;
9834;SDS011;4956;50.996;13.716;2022-12-04T10:02:36;60.08;;;32.35;;
9834;SDS011;4956;50.996;13.716;2022-12-04T10:06:03;56.00;;;31.42;;
9834;SDS011;4956;50.996;13.716;2022-12-04T10:09:38;56.78;;;31.55;;
9834;SDS011;4956;50.996;13.716;2022-12-04T10:13:20;75.00;;;37.88;;
9834;SDS011;4956;50.996;13.716;2022-12-04T10:24:39;63.70;;;33.85;;
9834;SDS011;4956;50.996;13.716;2022-12-04T10:31:42;69.15;;;35.83;;
9834;SDS011;4956;50.996;13.716;2022-12-04T10:35:07;67.75;;;36.10;;
9834;SDS011;4956;50.996;13.716;2022-12-04T10:42:44;66.95;;;35.47;;
9834;SDS011;4956;50.996;13.716;2022-12-04T10:46:12;58.13;;;33.03;;
9834;SDS011;4956;50.996;13.716;2022-12-04T10:49:42;66.07;;;35.60;;
9834;SDS011;4956;50.996;13.716;2022-12-04T10:53:02;60.97;;;35.20;;
9834;SDS011;4956;50.996;13.716;2022-12-04T10:56:23;63.72;;;34.63;;
9834;SDS011;4956;50.996;13.716;2022-12-04T11:03:21;65.43;;;36.40;;
9834;SDS011;4956;50.996;13.716;2022-12-04T11:06:44;59.80;;;33.25;;
9834;SDS011;4956;50.996;13.716;2022-12-04T11:10:06;60.17;;;33.20;;
9834;SDS011;4956;50.996;13.716;2022-12-04T11:13:37;57.88;;;31.38;;
9834;SDS011;4956;50.996;13.716;2022-12-04T11:16:59;56.67;;;33.10;;
9834;SDS011;4956;50.996;13.716;2022-12-04T11:20:22;61.30;;;34.05;;
9834;SDS011;4956;50.996;13.716;2022-12-04T11:23:45;55.25;;;32.60;;
9834;SDS011;4956;50.996;13.716;2022-12-04T11:27:14;54.28;;;31.23;;
9834;SDS011;4956;50.996;13.716;2022-12-04T11:30:38;54.38;;;30.63;;
9834;SDS011;4956;50.996;13.716;2022-12-04T11:33:59;56.22;;;31.35;;
9834;SDS011;4956;50.996;13.716;2022-12-04T11:37:24;56.97;;;32.60;;
9834;SDS011;4956;50.996;13.716;2022-12-04T11:40:47;56.45;;;32.05;;
9834;SDS011;4956;50.996;13.716;2022-12-04T11:44:21;52.13;;;30.30;;
9834;SDS011;4956;50.996;13.716;2022-12-04T11:47:52;49.63;;;29.55;;
9834;SDS011;4956;50.996;13.716;2022-12-04T11:58:24;51.72;;;30.35;;
9834;SDS011;4956;50.996;13.716;2022-12-04T12:02:56;56.53;;;31.45;;
9834;SDS011;4956;50.996;13.716;2022-12-04T12:06:05;56.92;;;31.23;;
9834;SDS011;4956;50.996;13.716;2022-12-04T12:10:02;55.50;;;31.00;;
9834;SDS011;4956;50.996;13.716;2022-12-04T12:17:24;51.38;;;30.55;;
9834;SDS011;4956;50.996;13.716;2022-12-04T12:20:59;60.03;;;34.15;;
9834;SDS011;4956;50.996;13.716;2022-12-04T12:42:17;57.35;;;32.42;;
9834;SDS011;4956;50.996;13.716;2022-12-04T12:49:09;54.67;;;32.20;;
9834;SDS011;4956;50.996;13.716;2022-12-04T12:56:16;53.90;;;31.17;;
9834;SDS011;4956;50.996;13.716;2022-12-04T12:59:39;50.17;;;29.63;;
9834;SDS011;4956;50.996;13.716;2022-12-04T13:03:27;51.72;;;29.60;;
9834;SDS011;4956;50.996;13.716;2022-12-04T13:10:53;51.05;;;29.55;;
9834;SDS011;4956;50.996;13.716;2022-12-04T13:14:26;51.85;;;30.23;;
9834;SDS011;4956;50.996;13.716;2022-12-04T13:17:47;52.63;;;30.08;;
9834;SDS011;4956;50.996;13.716;2022-12-04T13:21:11;48.78;;;28.88;;
9834;SDS011;4956;50.996;13.716;2022-12-04T13:25:01;47.65;;;28.75;;
9834;SDS011;4956;50.996;13.716;2022-12-04T13:28:27;48.28;;;28.60;;
9834;SDS011;4956;50.996;13.716;2022-12-04T13:43:12;44.47;;;26.58;;
9834;SDS011;4956;50.996;13.716;2022-12-04T13:53:40;47.58;;;28.70;;
9834;SDS011;4956;50.996;13.716;2022-12-04T14:00:34;46.10;;;28.80;;
9834;SDS011;4956;50.996;13.716;2022-12-04T14:03:55;45.80;;;27.05;;
9834;SDS011;4956;50.996;13.716;2022-12-04T14:07:21;44.83;;;27.60;;
9834;SDS011;4956;50.996;13.716;2022-12-04T14:10:58;45.55;;;27.33;;
9834;SDS011;4956;50.996;13.716;2022-12-04T14:14:24;43.92;;;26.30;;
9834;SDS011;4956;50.996;13.716;2022-12-04T14:17:55;43.20;;;27.00;;
9834;SDS011;4956;50.996;13.716;2022-12-04T14:21:19;46.55;;;27.30;;
9834;SDS011;4956;50.996;13.716;2022-12-04T14:24:40;44.10;;;26.80;;
9834;SDS011;4956;50.996;13.716;2022-12-04T14:28:10;40.38;;;26.15;;
9834;SDS011;4956;50.996;13.716;2022-12-04T14:31:45;46.67;;;27.00;;
9834;SDS011;4956;50.996;13.716;2022-12-04T14:35:11;41.30;;;25.13;;
9834;SDS011;4956;50.996;13.716;2022-12-04T14:38:33;41.85;;;25.42;;
9834;SDS011;4956;50.996;13.716;2022-12-04T14:42:04;40.92;;;25.63;;
9834;SDS011;4956;50.996;13.716;2022-12-04T15:00:33;40.35;;;26.13;;
9834;SDS011;4956;50.996;13.716;2022-12-04T15:03:54;43.42;;;27.30;;
9834;SDS011;4956;50.996;13.716;2022-12-04T15:07:23;37.80;;;25.50;;
9834;SDS011;4956;50.996;13.716;2022-12-04T15:10:48;38.17;;;26.00;;
9834;SDS011;4956;50.996;13.716;2022-12-04T15:14:38;40.60;;;25.70;;
9834;SDS011;4956;50.996;13.716;2022-12-04T15:21:23;41.58;;;26.00;;
9834;SDS011;4956;50.996;13.716;2022-12-04T15:24:49;38.28;;;24.33;;
9834;SDS011;4956;50.996;13.716;2022-12-04T15:28:11;37.10;;;24.73;;
9834;SDS011;4956;50.996;13.716;2022-12-04T15:31:37;39.13;;;24.67;;
9834;SDS011;4956;50.996;13.716;2022-12-04T15:35:04;39.55;;;25.30;;
9834;SDS011;4956;50.996;13.716;2022-12-04T15:38:28;39.15;;;24.83;;
9834;SDS011;4956;50.996;13.716;2022-12-04T15:41:48;37.22;;;24.95;;
9834;SDS011;4956;50.996;13.716;2022-12-04T15:48:29;37.83;;;24.02;;
9834;SDS011;4956;50.996;13.716;2022-12-04T15:51:50;36.67;;;24.40;;
9834;SDS011;4956;50.996;13.716;2022-12-04T15:55:11;36.63;;;23.48;;
9834;SDS011;4956;50.996;13.716;2022-12-04T15:58:39;38.72;;;24.27;;
9834;SDS011;4956;50.996;13.716;2022-12-04T16:02:03;36.08;;;23.05;;
9834;SDS011;4956;50.996;13.716;2022-12-04T16:05:33;36.28;;;23.98;;
9834;SDS011;4956;50.996;13.716;2022-12-04T16:08:59;33.90;;;22.42;;
9834;SDS011;4956;50.996;13.716;2022-12-04T16:12:23;34.08;;;22.30;;
9834;SDS011;4956;50.996;13.716;2022-12-04T16:15:46;37.17;;;23.30;;
9834;SDS011;4956;50.996;13.716;2022-12-04T16:19:27;35.67;;;23.02;;
9834;SDS011;4956;50.996;13.716;2022-12-04T16:22:52;32.60;;;22.20;;
9834;SDS011;4956;50.996;13.716;2022-12-04T16:26:14;37.97;;;24.10;;
9834;SDS011;4956;50.996;13.716;2022-12-04T16:29:35;36.65;;;23.98;;
9834;SDS011;4956;50.996;13.716;2022-12-04T16:32:56;39.33;;;24.67;;
9834;SDS011;4956;50.996;13.716;2022-12-04T16:36:16;49.03;;;31.08;;
9834;SDS011;4956;50.996;13.716;2022-12-04T16:39:37;46.15;;;28.25;;
9834;SDS011;4956;50.996;13.716;2022-12-04T16:42:57;38.13;;;24.88;;
9834;SDS011;4956;50.996;13.716;2022-12-04T16:46:18;31.95;;;22.05;;
9834;SDS011;4956;50.996;13.716;2022-12-04T16:49:39;31.98;;;22.25;;
9834;SDS011;4956;50.996;13.716;2022-12-04T16:53:01;33.75;;;22.02;;
9834;SDS011;4956;50.996;13.716;2022-12-04T16:56:21;31.05;;;20.92;;
9834;SDS011;4956;50.996;13.716;2022-12-04T16:59:42;31.30;;;20.88;;
9834;SDS011;4956;50.996;13.716;2022-12-04T17:03:02;27.38;;;20.20;;
9834;SDS011;4956;50.996;13.716;2022-12-04T17:06:23;31.40;;;20.92;;
9834;SDS011;4956;50.996;13.716;2022-12-04T17:09:43;31.15;;;20.60;;
9834;SDS011;4956;50.996;13.716;2022-12-04T17:13:04;30.17;;;20.42;;
9834;SDS011;4956;50.996;13.716;2022-12-04T17:16:24;29.92;;;20.45;;
9834;SDS011;4956;50.996;13.716;2022-12-04T17:19:45;30.80;;;20.33;;
9834;SDS011;4956;50.996;13.716;2022-12-04T17:23:05;27.92;;;19.75;;
9834;SDS011;4956;50.996;13.716;2022-12-04T17:26:25;28.80;;;20.27;;
9834;SDS011;4956;50.996;13.716;2022-12-04T17:29:46;28.65;;;19.70;;
9834;SDS011;4956;50.996;13.716;2022-12-04T17:33:07;27.75;;;19.95;;
9834;SDS011;4956;50.996;13.716;2022-12-04T17:36:27;28.75;;;20.23;;
9834;SDS011;4956;50.996;13.716;2022-12-04T17:39:47;29.52;;;20.20;;
9834;SDS011;4956;50.996;13.716;2022-12-04T17:43:08;29.80;;;20.27;;
9834;SDS011;4956;50.996;13.716;2022-12-04T17:46:28;27.45;;;18.83;;
9834;SDS011;4956;50.996;13.716;2022-12-04T17:49:48;28.42;;;19.27;;
9834;SDS011;4956;50.996;13.716;2022-12-04T17:53:09;28.50;;;19.88;;
9834;SDS011;4956;50.996;13.716;2022-12-04T17:56:29;27.05;;;18.58;;
9834;SDS011;4956;50.996;13.716;2022-12-04T17:59:50;25.73;;;18.92;;
9834;SDS011;4956;50.996;13.716;2022-12-04T18:03:10;29.33;;;19.73;;
9834;SDS011;4956;50.996;13.716;2022-12-04T18:06:32;29.98;;;19.25;;
9834;SDS011;4956;50.996;13.716;2022-12-04T18:09:55;28.58;;;19.52;;
9834;SDS011;4956;50.996;13.716;2022-12-04T18:13:15;29.30;;;19.90;;
9834;SDS011;4956;50.996;13.716;2022-12-04T18:16:36;26.65;;;18.95;;
9834;SDS011;4956;50.996;13.716;2022-12-04T18:19:59;27.73;;;19.13;;
9834;SDS011;4956;50.996;13.716;2022-12-04T18:23:19;24.80;;;17.92;;
9834;SDS011;4956;50.996;13.716;2022-12-04T18:26:41;26.58;;;17.98;;
9834;SDS011;4956;50.996;13.716;2022-12-04T18:30:04;28.35;;;19.00;;
9834;SDS011;4956;50.996;13.716;2022-12-04T18:33:28;33.45;;;21.63;;
9834;SDS011;4956;50.996;13.716;2022-12-04T18:36:50;28.23;;;18.92;;
9834;SDS011;4956;50.996;13.716;2022-12-04T18:40:10;26.60;;;17.80;;
9834;SDS011;4956;50.996;13.716;2022-12-04T18:43:32;26.65;;;18.52;;
9834;SDS011;4956;50.996;13.716;2022-12-04T18:46:54;26.92;;;17.73;;
9834;SDS011;4956;50.996;13.716;2022-12-04T18:50:14;24.65;;;17.90;;
9834;SDS011;4956;50.996;13.716;2022-12-04T18:53:36;25.95;;;17.58;;
9834;SDS011;4956;50.996;13.716;2022-12-04T18:56:59;23.17;;;17.08;;
9834;SDS011;4956;50.996;13.716;2022-12-04T19:00:19;26.75;;;17.92;;
9834;SDS011;4956;50.996;13.716;2022-12-04T19:03:39;26.50;;;18.55;;
9834;SDS011;4956;50.996;13.716;2022-12-04T19:07:00;26.30;;;18.40;;
9834;SDS011;4956;50.996;13.716;2022-12-04T19:10:21;25.70;;;18.08;;
9834;SDS011;4956;50.996;13.716;2022-12-04T19:13:41;22.95;;;17.05;;
9834;SDS011;4956;50.996;13.716;2022-12-04T19:17:02;23.73;;;16.77;;
9834;SDS011;4956;50.996;13.716;2022-12-04T19:20:22;24.80;;;18.13;;
9834;SDS011;4956;50.996;13.716;2022-12-04T19:23:47;24.20;;;17.85;;
9834;SDS011;4956;50.996;13.716;2022-12-04T19:27:09;24.70;;;17.42;;
9834;SDS011;4956;50.996;13.716;2022-12-04T19:30:31;27.88;;;18.23;;
9834;SDS011;4956;50.996;13.716;2022-12-04T19:33:52;23.33;;;17.02;;
9834;SDS011;4956;50.996;13.716;2022-12-04T19:37:16;25.67;;;17.70;;
9834;SDS011;4956;50.996;13.716;2022-12-04T19:40:36;24.90;;;17.67;;
9834;SDS011;4956;50.996;13.716;2022-12-04T19:43:57;24.30;;;17.35;;
9834;SDS011;4956;50.996;13.716;2022-12-04T19:47:18;24.30;;;17.35;;
9834;SDS011;4956;50.996;13.716;2022-12-04T19:50:39;25.05;;;17.38;;
9834;SDS011;4956;50.996;13.716;2022-12-04T19:53:59;23.33;;;16.40;;
9834;SDS011;4956;50.996;13.716;2022-12-04T19:57:20;26.48;;;18.05;;
9834;SDS011;4956;50.996;13.716;2022-12-04T20:00:40;27.98;;;19.23;;
9834;SDS011;4956;50.996;13.716;2022-12-04T20:04:02;27.08;;;18.27;;
9834;SDS011;4956;50.996;13.716;2022-12-04T20:07:24;23.63;;;17.05;;
9834;SDS011;4956;50.996;13.716;2022-12-04T20:10:44;24.75;;;17.15;;
9834;SDS011;4956;50.996;13.716;2022-12-04T20:14:05;23.60;;;16.70;;
9834;SDS011;4956;50.996;13.716;2022-12-04T20:17:26;24.70;;;17.33;;
9834;SDS011;4956;50.996;13.716;2022-12-04T20:20:54;23.92;;;16.88;;
9834;SDS011;4956;50.996;13.716;2022-12-04T20:24:15;22.25;;;16.10;;
9834;SDS011;4956;50.996;13.716;2022-12-04T20:27:36;23.75;;;16.25;;
9834;SDS011;4956;50.996;13.716;2022-12-04T20:30:57;24.75;;;16.00;;
9834;SDS011;4956;50.996;13.716;2022-12-04T20:34:17;23.70;;;15.95;;
9834;SDS011;4956;50.996;13.716;2022-12-04T20:37:38;24.35;;;17.08;;
9834;SDS011;4956;50.996;13.716;2022-12-04T20:41:02;24.42;;;16.77;;
9834;SDS011;4956;50.996;13.716;2022-12-04T20:44:23;23.00;;;16.65;;
9834;SDS011;4956;50.996;13.716;2022-12-04T20:47:44;23.63;;;16.40;;
9834;SDS011;4956;50.996;13.716;2022-12-04T20:51:04;24.95;;;16.98;;
9834;SDS011;4956;50.996;13.716;2022-12-04T20:54:24;23.23;;;16.73;;
9834;SDS011;4956;50.996;13.716;2022-12-04T20:57:45;23.20;;;16.67;;
9834;SDS011;4956;50.996;13.716;2022-12-04T21:01:06;25.40;;;17.77;;
9834;SDS011;4956;50.996;13.716;2022-12-04T21:04:34;26.15;;;17.13;;
9834;SDS011;4956;50.996;13.716;2022-12-04T21:07:56;24.25;;;17.23;;
9834;SDS011;4956;50.996;13.716;2022-12-04T21:11:16;25.45;;;17.40;;
9834;SDS011;4956;50.996;13.716;2022-12-04T21:14:36;24.25;;;17.02;;
9834;SDS011;4956;50.996;13.716;2022-12-04T21:18:15;23.92;;;16.33;;
9834;SDS011;4956;50.996;13.716;2022-12-04T21:21:36;43.03;;;28.15;;
9834;SDS011;4956;50.996;13.716;2022-12-04T21:24:56;23.52;;;16.95;;
9834;SDS011;4956;50.996;13.716;2022-12-04T21:28:17;24.85;;;16.77;;
9834;SDS011;4956;50.996;13.716;2022-12-04T21:31:38;25.33;;;16.42;;
9834;SDS011;4956;50.996;13.716;2022-12-04T21:34:58;24.08;;;16.88;;
9834;SDS011;4956;50.996;13.716;2022-12-04T21:38:20;23.35;;;16.88;;
9834;SDS011;4956;50.996;13.716;2022-12-04T21:41:40;22.45;;;15.98;;
9834;SDS011;4956;50.996;13.716;2022-12-04T21:45:19;23.05;;;16.17;;
9834;SDS011;4956;50.996;13.716;2022-12-04T21:48:39;23.88;;;15.35;;
9834;SDS011;4956;50.996;13.716;2022-12-04T21:52:00;22.80;;;15.48;;
9834;SDS011;4956;50.996;13.716;2022-12-04T21:55:20;20.70;;;14.40;;
9834;SDS011;4956;50.996;13.716;2022-12-04T21:58:44;21.25;;;14.57;;
9834;SDS011;4956;50.996;13.716;2022-12-04T22:02:04;21.50;;;14.45;;
9834;SDS011;4956;50.996;13.716;2022-12-04T22:05:24;18.02;;;13.55;;
9834;SDS011;4956;50.996;13.716;2022-12-04T22:08:45;18.08;;;13.00;;
9834;SDS011;4956;50.996;13.716;2022-12-04T22:12:06;17.95;;;12.15;;
9834;SDS011;4956;50.996;13.716;2022-12-04T22:15:26;17.73;;;12.45;;
9834;SDS011;4956;50.996;13.716;2022-12-04T22:18:46;19.13;;;12.05;;
9834;SDS011;4956;50.996;13.716;2022-12-04T22:22:07;19.35;;;12.40;;
9834;SDS011;4956;50.996;13.716;2022-12-04T22:25:28;18.15;;;11.60;;
9834;SDS011;4956;50.996;13.716;2022-12-04T22:28:48;17.40;;;11.77;;